sensor_id;sensor_type;location;lat;lon;timestamp;temperature;humidity
37642;DHT22;23486;51.956;5.888;2022-08-19T00:01:28;19.00;99.90
37642;DHT22;23486;51.956;5.888;2022-08-19T00:03:55;19.00;99.90
37642;DHT22;23486;51.956;5.888;2022-08-19T00:06:21;18.90;99.90
37642;DHT22;23486;51.956;5.888;2022-08-19T00:08:47;18.90;99.90
37642;DHT22;23486;51.956;5.888;2022-08-19T00:11:12;18.90;99.90
37642;DHT22;23486;51.956;5.888;2022-08-19T00:13:38;18.90;99.90
37642;DHT22;23486;51.956;5.888;2022-08-19T00:16:04;18.90;99.90
37642;DHT22;23486;51.956;5.888;2022-08-19T00:18:34;18.90;99.90
37642;DHT22;23486;51.956;5.888;2022-08-19T00:21:03;18.80;99.90
37642;DHT22;23486;51.956;5.888;2022-08-19T00:23:32;18.80;99.90
37642;DHT22;23486;51.956;5.888;2022-08-19T00:26:00;18.80;99.90
37642;DHT22;23486;51.956;5.888;2022-08-19T00:28:25;18.80;99.90
37642;DHT22;23486;51.956;5.888;2022-08-19T00:30:51;18.80;99.90
37642;DHT22;23486;51.956;5.888;2022-08-19T00:33:18;18.70;99.90
37642;DHT22;23486;51.956;5.888;2022-08-19T00:35:44;18.70;99.90
37642;DHT22;23486;51.956;5.888;2022-08-19T00:38:10;18.70;99.90
37642;DHT22;23486;51.956;5.888;2022-08-19T00:40:35;18.70;99.90
37642;DHT22;23486;51.956;5.888;2022-08-19T00:43:01;18.60;99.90
37642;DHT22;23486;51.956;5.888;2022-08-19T00:45:28;18.70;99.90
37642;DHT22;23486;51.956;5.888;2022-08-19T00:47:57;18.60;99.90
37642;DHT22;23486;51.956;5.888;2022-08-19T00:50:23;18.50;99.90
37642;DHT22;23486;51.956;5.888;2022-08-19T00:52:50;18.60;99.90
37642;DHT22;23486;51.956;5.888;2022-08-19T00:55:20;18.50;99.90
37642;DHT22;23486;51.956;5.888;2022-08-19T00:57:51;18.50;99.90
37642;DHT22;23486;51.956;5.888;2022-08-19T01:00:21;18.50;99.90
37642;DHT22;23486;51.956;5.888;2022-08-19T01:02:47;18.50;99.90
37642;DHT22;23486;51.956;5.888;2022-08-19T01:05:17;18.40;99.90
37642;DHT22;23486;51.956;5.888;2022-08-19T01:07:44;18.40;99.90
37642;DHT22;23486;51.956;5.888;2022-08-19T01:10:19;18.30;99.90
37642;DHT22;23486;51.956;5.888;2022-08-19T01:12:47;18.30;99.90
37642;DHT22;23486;51.956;5.888;2022-08-19T01:15:16;18.30;99.90
37642;DHT22;23486;51.956;5.888;2022-08-19T01:17:42;18.30;99.90
37642;DHT22;23486;51.956;5.888;2022-08-19T01:20:18;18.30;99.90
37642;DHT22;23486;51.956;5.888;2022-08-19T01:22:48;18.20;99.90
37642;DHT22;23486;51.956;5.888;2022-08-19T01:25:17;18.20;99.90
37642;DHT22;23486;51.956;5.888;2022-08-19T01:27:46;18.20;99.90
37642;DHT22;23486;51.956;5.888;2022-08-19T01:30:17;18.20;99.90
37642;DHT22;23486;51.956;5.888;2022-08-19T01:32:43;18.20;99.90
37642;DHT22;23486;51.956;5.888;2022-08-19T01:35:11;18.20;99.90
37642;DHT22;23486;51.956;5.888;2022-08-19T01:37:46;18.10;99.90
37642;DHT22;23486;51.956;5.888;2022-08-19T01:40:12;18.10;99.90
37642;DHT22;23486;51.956;5.888;2022-08-19T01:42:37;18.10;99.90
37642;DHT22;23486;51.956;5.888;2022-08-19T01:45:05;18.10;99.90
37642;DHT22;23486;51.956;5.888;2022-08-19T01:47:31;18.20;99.90
37642;DHT22;23486;51.956;5.888;2022-08-19T01:49:59;18.10;99.90
37642;DHT22;23486;51.956;5.888;2022-08-19T01:52:25;18.20;99.90
37642;DHT22;23486;51.956;5.888;2022-08-19T01:54:53;18.20;99.90
37642;DHT22;23486;51.956;5.888;2022-08-19T01:57:19;18.20;99.90
37642;DHT22;23486;51.956;5.888;2022-08-19T01:59:45;18.10;99.90
37642;DHT22;23486;51.956;5.888;2022-08-19T02:02:10;18.10;99.90
37642;DHT22;23486;51.956;5.888;2022-08-19T02:04:37;18.10;99.90
37642;DHT22;23486;51.956;5.888;2022-08-19T02:07:07;18.10;99.90
37642;DHT22;23486;51.956;5.888;2022-08-19T02:09:33;18.10;99.90
37642;DHT22;23486;51.956;5.888;2022-08-19T02:11:59;18.10;99.90
37642;DHT22;23486;51.956;5.888;2022-08-19T02:14:25;18.20;99.90
37642;DHT22;23486;51.956;5.888;2022-08-19T02:16:51;18.30;99.90
37642;DHT22;23486;51.956;5.888;2022-08-19T02:19:16;18.30;99.90
37642;DHT22;23486;51.956;5.888;2022-08-19T02:21:42;18.40;99.90
37642;DHT22;23486;51.956;5.888;2022-08-19T02:24:09;18.40;99.90
37642;DHT22;23486;51.956;5.888;2022-08-19T02:26:34;18.50;99.90
37642;DHT22;23486;51.956;5.888;2022-08-19T02:29:00;18.40;99.90
37642;DHT22;23486;51.956;5.888;2022-08-19T02:31:26;18.40;99.90
37642;DHT22;23486;51.956;5.888;2022-08-19T02:33:53;18.40;99.90
37642;DHT22;23486;51.956;5.888;2022-08-19T02:36:19;18.40;99.90
37642;DHT22;23486;51.956;5.888;2022-08-19T02:38:45;18.30;99.90
37642;DHT22;23486;51.956;5.888;2022-08-19T02:41:16;18.30;99.90
37642;DHT22;23486;51.956;5.888;2022-08-19T02:43:46;18.20;99.90
37642;DHT22;23486;51.956;5.888;2022-08-19T02:46:22;18.20;99.90
37642;DHT22;23486;51.956;5.888;2022-08-19T02:48:52;18.20;99.90
37642;DHT22;23486;51.956;5.888;2022-08-19T02:51:20;18.10;99.90
37642;DHT22;23486;51.956;5.888;2022-08-19T02:53:46;18.20;99.90
37642;DHT22;23486;51.956;5.888;2022-08-19T02:56:12;18.10;99.90
37642;DHT22;23486;51.956;5.888;2022-08-19T02:58:37;18.10;99.90
37642;DHT22;23486;51.956;5.888;2022-08-19T03:01:03;18.10;99.90
37642;DHT22;23486;51.956;5.888;2022-08-19T03:03:29;18.10;99.90
37642;DHT22;23486;51.956;5.888;2022-08-19T03:06:09;18.10;99.90
37642;DHT22;23486;51.956;5.888;2022-08-19T03:08:36;18.00;99.90
37642;DHT22;23486;51.956;5.888;2022-08-19T03:11:02;18.00;99.90
37642;DHT22;23486;51.956;5.888;2022-08-19T03:13:28;17.90;99.90
37642;DHT22;23486;51.956;5.888;2022-08-19T03:15:55;17.90;99.90
37642;DHT22;23486;51.956;5.888;2022-08-19T03:18:23;17.90;99.90
37642;DHT22;23486;51.956;5.888;2022-08-19T03:20:51;17.80;99.90
37642;DHT22;23486;51.956;5.888;2022-08-19T03:23:19;17.80;99.90
37642;DHT22;23486;51.956;5.888;2022-08-19T03:25:47;17.70;99.90
37642;DHT22;23486;51.956;5.888;2022-08-19T03:28:14;17.70;99.90
37642;DHT22;23486;51.956;5.888;2022-08-19T03:30:53;17.70;99.90
37642;DHT22;23486;51.956;5.888;2022-08-19T03:33:22;17.60;99.90
37642;DHT22;23486;51.956;5.888;2022-08-19T03:36:03;17.60;99.90
37642;DHT22;23486;51.956;5.888;2022-08-19T03:38:29;17.50;99.90
37642;DHT22;23486;51.956;5.888;2022-08-19T03:40:55;17.60;99.90
37642;DHT22;23486;51.956;5.888;2022-08-19T03:43:20;17.50;99.90
37642;DHT22;23486;51.956;5.888;2022-08-19T03:45:46;17.50;99.90
37642;DHT22;23486;51.956;5.888;2022-08-19T03:48:14;17.50;99.90
37642;DHT22;23486;51.956;5.888;2022-08-19T03:50:40;17.40;99.90
37642;DHT22;23486;51.956;5.888;2022-08-19T03:53:09;17.40;99.90
37642;DHT22;23486;51.956;5.888;2022-08-19T03:55:40;17.40;99.90
37642;DHT22;23486;51.956;5.888;2022-08-19T03:58:05;17.40;99.90
37642;DHT22;23486;51.956;5.888;2022-08-19T04:00:31;17.40;99.90
37642;DHT22;23486;51.956;5.888;2022-08-19T04:02:59;17.50;99.90
37642;DHT22;23486;51.956;5.888;2022-08-19T04:05:27;17.40;99.90
37642;DHT22;23486;51.956;5.888;2022-08-19T04:07:53;17.40;99.90
37642;DHT22;23486;51.956;5.888;2022-08-19T04:10:24;17.30;99.90
37642;DHT22;23486;51.956;5.888;2022-08-19T04:12:49;17.40;99.90
37642;DHT22;23486;51.956;5.888;2022-08-19T04:15:15;17.40;99.90
37642;DHT22;23486;51.956;5.888;2022-08-19T04:17:41;17.40;99.90
37642;DHT22;23486;51.956;5.888;2022-08-19T04:20:09;17.30;99.90
37642;DHT22;23486;51.956;5.888;2022-08-19T04:22:35;17.30;99.90
37642;DHT22;23486;51.956;5.888;2022-08-19T04:25:03;17.30;99.90
37642;DHT22;23486;51.956;5.888;2022-08-19T04:27:29;17.20;99.90
37642;DHT22;23486;51.956;5.888;2022-08-19T04:29:57;17.20;99.90
37642;DHT22;23486;51.956;5.888;2022-08-19T04:32:22;17.10;99.90
37642;DHT22;23486;51.956;5.888;2022-08-19T04:34:48;17.10;99.90
37642;DHT22;23486;51.956;5.888;2022-08-19T04:37:13;17.10;99.90
37642;DHT22;23486;51.956;5.888;2022-08-19T04:39:39;17.00;99.90
37642;DHT22;23486;51.956;5.888;2022-08-19T04:42:23;17.10;99.90
37642;DHT22;23486;51.956;5.888;2022-08-19T04:45:07;17.00;99.90
37642;DHT22;23486;51.956;5.888;2022-08-19T04:47:38;17.00;99.90
37642;DHT22;23486;51.956;5.888;2022-08-19T04:50:05;17.00;99.90
37642;DHT22;23486;51.956;5.888;2022-08-19T04:52:31;17.00;99.90
37642;DHT22;23486;51.956;5.888;2022-08-19T04:54:58;16.90;99.90
37642;DHT22;23486;51.956;5.888;2022-08-19T04:57:24;16.90;99.90
37642;DHT22;23486;51.956;5.888;2022-08-19T04:59:53;16.90;99.90
37642;DHT22;23486;51.956;5.888;2022-08-19T05:02:19;16.90;99.90
37642;DHT22;23486;51.956;5.888;2022-08-19T05:04:45;16.90;99.90
37642;DHT22;23486;51.956;5.888;2022-08-19T05:07:10;16.90;99.90
37642;DHT22;23486;51.956;5.888;2022-08-19T05:09:37;17.00;99.90
37642;DHT22;23486;51.956;5.888;2022-08-19T05:12:02;17.00;99.90
37642;DHT22;23486;51.956;5.888;2022-08-19T05:14:28;17.00;99.90
37642;DHT22;23486;51.956;5.888;2022-08-19T05:16:54;17.00;99.90
37642;DHT22;23486;51.956;5.888;2022-08-19T05:19:20;17.00;99.90
37642;DHT22;23486;51.956;5.888;2022-08-19T05:22:04;17.10;99.90
37642;DHT22;23486;51.956;5.888;2022-08-19T05:24:48;17.10;99.90
37642;DHT22;23486;51.956;5.888;2022-08-19T05:27:14;17.10;99.90
37642;DHT22;23486;51.956;5.888;2022-08-19T05:29:39;17.10;99.90
37642;DHT22;23486;51.956;5.888;2022-08-19T05:32:05;17.10;99.90
37642;DHT22;23486;51.956;5.888;2022-08-19T05:34:34;17.10;99.90
37642;DHT22;23486;51.956;5.888;2022-08-19T05:37:01;17.20;99.90
37642;DHT22;23486;51.956;5.888;2022-08-19T05:39:33;17.20;99.90
37642;DHT22;23486;51.956;5.888;2022-08-19T05:42:03;17.30;99.90
37642;DHT22;23486;51.956;5.888;2022-08-19T05:44:30;17.30;99.90
37642;DHT22;23486;51.956;5.888;2022-08-19T05:46:57;17.30;99.90
37642;DHT22;23486;51.956;5.888;2022-08-19T05:49:23;17.40;99.90
37642;DHT22;23486;51.956;5.888;2022-08-19T05:51:51;17.50;99.90
37642;DHT22;23486;51.956;5.888;2022-08-19T05:54:17;17.50;99.90
37642;DHT22;23486;51.956;5.888;2022-08-19T05:56:43;17.60;99.90
37642;DHT22;23486;51.956;5.888;2022-08-19T05:59:10;17.60;99.90
37642;DHT22;23486;51.956;5.888;2022-08-19T06:01:40;17.70;99.90
37642;DHT22;23486;51.956;5.888;2022-08-19T06:04:06;17.80;99.90
37642;DHT22;23486;51.956;5.888;2022-08-19T06:06:35;17.90;99.90
37642;DHT22;23486;51.956;5.888;2022-08-19T06:09:05;17.90;99.90
37642;DHT22;23486;51.956;5.888;2022-08-19T06:11:44;18.00;99.90
37642;DHT22;23486;51.956;5.888;2022-08-19T06:14:13;18.00;99.90
37642;DHT22;23486;51.956;5.888;2022-08-19T06:16:41;18.10;99.90
37642;DHT22;23486;51.956;5.888;2022-08-19T06:19:12;18.20;99.90
37642;DHT22;23486;51.956;5.888;2022-08-19T06:21:40;18.20;99.90
37642;DHT22;23486;51.956;5.888;2022-08-19T06:24:08;18.30;99.90
37642;DHT22;23486;51.956;5.888;2022-08-19T06:26:36;18.30;99.90
37642;DHT22;23486;51.956;5.888;2022-08-19T06:29:03;18.40;99.90
37642;DHT22;23486;51.956;5.888;2022-08-19T06:31:29;18.40;99.90
37642;DHT22;23486;51.956;5.888;2022-08-19T06:33:56;18.50;99.90
37642;DHT22;23486;51.956;5.888;2022-08-19T06:36:27;18.50;99.90
37642;DHT22;23486;51.956;5.888;2022-08-19T06:38:55;18.60;99.90
37642;DHT22;23486;51.956;5.888;2022-08-19T06:41:23;18.70;99.90
37642;DHT22;23486;51.956;5.888;2022-08-19T06:43:51;18.80;99.90
37642;DHT22;23486;51.956;5.888;2022-08-19T06:46:18;18.90;99.90
37642;DHT22;23486;51.956;5.888;2022-08-19T06:48:45;19.10;99.90
37642;DHT22;23486;51.956;5.888;2022-08-19T06:51:13;19.20;99.90
37642;DHT22;23486;51.956;5.888;2022-08-19T06:53:41;19.30;99.90
37642;DHT22;23486;51.956;5.888;2022-08-19T06:56:08;19.40;99.90
37642;DHT22;23486;51.956;5.888;2022-08-19T06:58:34;19.50;99.90
37642;DHT22;23486;51.956;5.888;2022-08-19T07:01:02;19.40;99.90
37642;DHT22;23486;51.956;5.888;2022-08-19T07:03:32;19.50;99.90
37642;DHT22;23486;51.956;5.888;2022-08-19T07:06:13;19.50;99.90
37642;DHT22;23486;51.956;5.888;2022-08-19T07:08:57;19.50;99.90
37642;DHT22;23486;51.956;5.888;2022-08-19T07:11:24;19.50;99.90
37642;DHT22;23486;51.956;5.888;2022-08-19T07:13:52;19.60;99.90
37642;DHT22;23486;51.956;5.888;2022-08-19T07:16:19;19.60;99.90
37642;DHT22;23486;51.956;5.888;2022-08-19T07:18:49;19.60;99.90
37642;DHT22;23486;51.956;5.888;2022-08-19T07:21:22;19.60;99.90
37642;DHT22;23486;51.956;5.888;2022-08-19T07:23:49;19.60;99.90
37642;DHT22;23486;51.956;5.888;2022-08-19T07:26:27;19.70;99.90
37642;DHT22;23486;51.956;5.888;2022-08-19T07:28:54;19.80;99.90
37642;DHT22;23486;51.956;5.888;2022-08-19T07:31:22;19.90;99.90
37642;DHT22;23486;51.956;5.888;2022-08-19T07:33:49;19.90;99.90
37642;DHT22;23486;51.956;5.888;2022-08-19T07:36:20;20.00;99.90
37642;DHT22;23486;51.956;5.888;2022-08-19T07:38:48;20.10;99.90
37642;DHT22;23486;51.956;5.888;2022-08-19T07:41:21;20.10;99.90
37642;DHT22;23486;51.956;5.888;2022-08-19T07:43:48;20.30;99.90
37642;DHT22;23486;51.956;5.888;2022-08-19T07:46:19;20.40;99.90
37642;DHT22;23486;51.956;5.888;2022-08-19T07:48:49;20.40;99.90
37642;DHT22;23486;51.956;5.888;2022-08-19T07:51:19;20.50;99.90
37642;DHT22;23486;51.956;5.888;2022-08-19T07:53:45;20.40;99.90
37642;DHT22;23486;51.956;5.888;2022-08-19T07:56:16;20.50;99.90
37642;DHT22;23486;51.956;5.888;2022-08-19T07:58:44;20.50;99.90
37642;DHT22;23486;51.956;5.888;2022-08-19T08:01:14;20.70;99.90
37642;DHT22;23486;51.956;5.888;2022-08-19T08:03:40;20.70;99.90
37642;DHT22;23486;51.956;5.888;2022-08-19T08:06:25;20.70;99.90
37642;DHT22;23486;51.956;5.888;2022-08-19T08:09:09;20.80;99.90
37642;DHT22;23486;51.956;5.888;2022-08-19T08:11:59;20.90;99.90
37642;DHT22;23486;51.956;5.888;2022-08-19T08:14:32;21.00;99.90
37642;DHT22;23486;51.956;5.888;2022-08-19T08:16:59;21.10;99.90
37642;DHT22;23486;51.956;5.888;2022-08-19T08:19:26;21.10;99.90
37642;DHT22;23486;51.956;5.888;2022-08-19T08:21:53;21.20;99.90
37642;DHT22;23486;51.956;5.888;2022-08-19T08:24:19;21.20;99.90
37642;DHT22;23486;51.956;5.888;2022-08-19T08:26:45;21.30;99.90
37642;DHT22;23486;51.956;5.888;2022-08-19T08:29:11;21.20;99.90
37642;DHT22;23486;51.956;5.888;2022-08-19T08:31:39;21.10;99.90
37642;DHT22;23486;51.956;5.888;2022-08-19T08:34:05;21.00;99.90
37642;DHT22;23486;51.956;5.888;2022-08-19T08:36:31;21.00;99.90
37642;DHT22;23486;51.956;5.888;2022-08-19T08:38:59;20.90;99.90
37642;DHT22;23486;51.956;5.888;2022-08-19T08:41:41;20.90;99.90
37642;DHT22;23486;51.956;5.888;2022-08-19T08:44:17;20.90;99.90
37642;DHT22;23486;51.956;5.888;2022-08-19T08:46:49;20.90;99.90
37642;DHT22;23486;51.956;5.888;2022-08-19T08:54:35;21.00;99.90
37642;DHT22;23486;51.956;5.888;2022-08-19T08:57:03;21.10;99.90
37642;DHT22;23486;51.956;5.888;2022-08-19T08:59:35;21.10;99.90
37642;DHT22;23486;51.956;5.888;2022-08-19T09:02:02;21.10;99.90
37642;DHT22;23486;51.956;5.888;2022-08-19T09:04:28;21.20;99.90
37642;DHT22;23486;51.956;5.888;2022-08-19T09:08:14;21.20;99.90
37642;DHT22;23486;51.956;5.888;2022-08-19T09:10:22;21.30;99.90
37642;DHT22;23486;51.956;5.888;2022-08-19T09:15:51;21.50;99.90
37642;DHT22;23486;51.956;5.888;2022-08-19T09:18:18;21.60;99.90
37642;DHT22;23486;51.956;5.888;2022-08-19T09:20:44;21.70;99.90
37642;DHT22;23486;51.956;5.888;2022-08-19T09:23:11;21.80;99.90
37642;DHT22;23486;51.956;5.888;2022-08-19T09:25:37;21.80;99.90
37642;DHT22;23486;51.956;5.888;2022-08-19T09:28:05;22.00;99.90
37642;DHT22;23486;51.956;5.888;2022-08-19T09:30:34;22.20;99.90
37642;DHT22;23486;51.956;5.888;2022-08-19T09:33:04;22.50;99.90
37642;DHT22;23486;51.956;5.888;2022-08-19T09:35:30;22.50;99.90
37642;DHT22;23486;51.956;5.888;2022-08-19T09:37:57;22.50;99.90
37642;DHT22;23486;51.956;5.888;2022-08-19T09:40:23;22.50;99.90
37642;DHT22;23486;51.956;5.888;2022-08-19T09:42:49;22.60;99.90
37642;DHT22;23486;51.956;5.888;2022-08-19T09:45:16;22.60;99.90
37642;DHT22;23486;51.956;5.888;2022-08-19T09:47:42;22.60;99.90
37642;DHT22;23486;51.956;5.888;2022-08-19T09:50:12;22.60;99.90
37642;DHT22;23486;51.956;5.888;2022-08-19T09:52:39;22.50;99.90
37642;DHT22;23486;51.956;5.888;2022-08-19T09:55:06;22.50;99.90
37642;DHT22;23486;51.956;5.888;2022-08-19T09:57:32;22.40;99.90
37642;DHT22;23486;51.956;5.888;2022-08-19T09:59:58;22.30;99.90
37642;DHT22;23486;51.956;5.888;2022-08-19T10:02:24;22.40;99.90
37642;DHT22;23486;51.956;5.888;2022-08-19T10:04:51;22.30;99.90
37642;DHT22;23486;51.956;5.888;2022-08-19T10:07:35;22.20;99.90
37642;DHT22;23486;51.956;5.888;2022-08-19T10:10:02;22.20;99.90
37642;DHT22;23486;51.956;5.888;2022-08-19T10:12:27;22.20;99.90
37642;DHT22;23486;51.956;5.888;2022-08-19T10:14:53;22.20;99.90
37642;DHT22;23486;51.956;5.888;2022-08-19T10:17:19;22.30;99.90
37642;DHT22;23486;51.956;5.888;2022-08-19T10:19:45;22.30;99.90
37642;DHT22;23486;51.956;5.888;2022-08-19T10:22:12;22.30;99.90
37642;DHT22;23486;51.956;5.888;2022-08-19T10:24:40;22.30;99.90
37642;DHT22;23486;51.956;5.888;2022-08-19T10:27:06;22.30;99.90
37642;DHT22;23486;51.956;5.888;2022-08-19T10:29:32;22.30;99.90
37642;DHT22;23486;51.956;5.888;2022-08-19T10:32:05;22.40;99.90
37642;DHT22;23486;51.956;5.888;2022-08-19T10:34:34;22.60;99.90
37642;DHT22;23486;51.956;5.888;2022-08-19T10:37:00;22.60;99.90
37642;DHT22;23486;51.956;5.888;2022-08-19T10:39:27;22.70;99.90
37642;DHT22;23486;51.956;5.888;2022-08-19T10:41:56;22.80;99.90
37642;DHT22;23486;51.956;5.888;2022-08-19T10:44:22;22.90;99.90
37642;DHT22;23486;51.956;5.888;2022-08-19T10:46:55;23.00;99.90
37642;DHT22;23486;51.956;5.888;2022-08-19T10:49:21;23.00;99.90
37642;DHT22;23486;51.956;5.888;2022-08-19T10:51:48;23.10;99.90
37642;DHT22;23486;51.956;5.888;2022-08-19T10:54:32;23.20;99.90
37642;DHT22;23486;51.956;5.888;2022-08-19T10:57:17;23.20;99.90
37642;DHT22;23486;51.956;5.888;2022-08-19T10:59:42;23.30;99.80
37642;DHT22;23486;51.956;5.888;2022-08-19T11:02:10;23.40;99.60
37642;DHT22;23486;51.956;5.888;2022-08-19T11:04:37;23.50;99.00
37642;DHT22;23486;51.956;5.888;2022-08-19T11:07:04;23.50;99.20
37642;DHT22;23486;51.956;5.888;2022-08-19T11:09:40;23.50;99.20
37642;DHT22;23486;51.956;5.888;2022-08-19T11:12:06;23.60;99.10
37642;DHT22;23486;51.956;5.888;2022-08-19T11:14:34;23.70;98.80
37642;DHT22;23486;51.956;5.888;2022-08-19T11:17:04;23.80;98.90
37642;DHT22;23486;51.956;5.888;2022-08-19T11:19:30;23.90;98.70
37642;DHT22;23486;51.956;5.888;2022-08-19T11:21:56;23.90;98.40
37642;DHT22;23486;51.956;5.888;2022-08-19T11:24:23;24.00;98.30
37642;DHT22;23486;51.956;5.888;2022-08-19T11:26:51;24.00;98.20
37642;DHT22;23486;51.956;5.888;2022-08-19T11:29:19;24.10;98.00
37642;DHT22;23486;51.956;5.888;2022-08-19T11:31:47;24.20;97.90
37642;DHT22;23486;51.956;5.888;2022-08-19T11:34:16;24.30;97.70
37642;DHT22;23486;51.956;5.888;2022-08-19T11:36:44;24.30;97.40
37642;DHT22;23486;51.956;5.888;2022-08-19T11:39:12;24.30;97.30
37642;DHT22;23486;51.956;5.888;2022-08-19T11:41:39;24.30;96.70
37642;DHT22;23486;51.956;5.888;2022-08-19T11:44:05;24.20;96.40
37642;DHT22;23486;51.956;5.888;2022-08-19T11:46:33;24.30;96.40
37642;DHT22;23486;51.956;5.888;2022-08-19T11:49:00;24.40;96.40
37642;DHT22;23486;51.956;5.888;2022-08-19T11:51:27;24.60;96.40
37642;DHT22;23486;51.956;5.888;2022-08-19T11:53:54;24.70;96.30
37642;DHT22;23486;51.956;5.888;2022-08-19T11:56:21;24.70;96.10
37642;DHT22;23486;51.956;5.888;2022-08-19T11:58:47;24.80;96.10
37642;DHT22;23486;51.956;5.888;2022-08-19T12:01:16;24.80;96.10
37642;DHT22;23486;51.956;5.888;2022-08-19T12:03:42;24.90;95.90
37642;DHT22;23486;51.956;5.888;2022-08-19T12:06:12;24.90;95.60
37642;DHT22;23486;51.956;5.888;2022-08-19T12:08:39;25.00;95.60
37642;DHT22;23486;51.956;5.888;2022-08-19T12:11:05;25.00;95.40
37642;DHT22;23486;51.956;5.888;2022-08-19T12:13:34;24.90;95.20
37642;DHT22;23486;51.956;5.888;2022-08-19T12:16:00;25.10;95.40
37642;DHT22;23486;51.956;5.888;2022-08-19T12:18:27;25.10;95.00
37642;DHT22;23486;51.956;5.888;2022-08-19T12:20:55;25.20;95.10
37642;DHT22;23486;51.956;5.888;2022-08-19T12:23:21;25.30;95.10
37642;DHT22;23486;51.956;5.888;2022-08-19T12:25:48;25.40;95.20
37642;DHT22;23486;51.956;5.888;2022-08-19T12:28:21;25.50;95.10
37642;DHT22;23486;51.956;5.888;2022-08-19T12:30:48;25.70;95.20
37642;DHT22;23486;51.956;5.888;2022-08-19T12:33:15;25.70;95.10
37642;DHT22;23486;51.956;5.888;2022-08-19T12:35:42;25.80;95.00
37642;DHT22;23486;51.956;5.888;2022-08-19T12:38:10;25.90;94.90
37642;DHT22;23486;51.956;5.888;2022-08-19T12:40:35;25.90;94.50
37642;DHT22;23486;51.956;5.888;2022-08-19T12:43:01;25.90;94.50
37642;DHT22;23486;51.956;5.888;2022-08-19T12:45:26;26.10;94.50
37642;DHT22;23486;51.956;5.888;2022-08-19T12:47:52;26.10;94.30
37642;DHT22;23486;51.956;5.888;2022-08-19T12:50:18;26.00;94.00
37642;DHT22;23486;51.956;5.888;2022-08-19T12:52:46;25.80;94.20
37642;DHT22;23486;51.956;5.888;2022-08-19T12:55:13;25.80;94.40
37642;DHT22;23486;51.956;5.888;2022-08-19T12:57:39;25.90;94.40
37642;DHT22;23486;51.956;5.888;2022-08-19T13:00:12;26.00;94.40
37642;DHT22;23486;51.956;5.888;2022-08-19T13:02:39;26.10;94.20
37642;DHT22;23486;51.956;5.888;2022-08-19T13:05:07;26.20;93.60
37642;DHT22;23486;51.956;5.888;2022-08-19T13:07:34;26.20;93.70
37642;DHT22;23486;51.956;5.888;2022-08-19T13:10:00;26.30;93.80
37642;DHT22;23486;51.956;5.888;2022-08-19T13:12:27;26.40;93.60
37642;DHT22;23486;51.956;5.888;2022-08-19T13:14:54;26.50;93.30
37642;DHT22;23486;51.956;5.888;2022-08-19T13:17:20;26.40;92.70
37642;DHT22;23486;51.956;5.888;2022-08-19T13:19:46;26.30;93.10
37642;DHT22;23486;51.956;5.888;2022-08-19T13:22:11;26.40;93.10
37642;DHT22;23486;51.956;5.888;2022-08-19T13:24:37;26.50;93.10
37642;DHT22;23486;51.956;5.888;2022-08-19T13:27:09;26.60;92.90
37642;DHT22;23486;51.956;5.888;2022-08-19T13:29:40;26.60;92.60
37642;DHT22;23486;51.956;5.888;2022-08-19T13:32:24;26.70;92.90
37642;DHT22;23486;51.956;5.888;2022-08-19T13:35:09;26.90;92.50
37642;DHT22;23486;51.956;5.888;2022-08-19T13:37:34;27.20;92.20
37642;DHT22;23486;51.956;5.888;2022-08-19T13:40:21;27.10;92.00
37642;DHT22;23486;51.956;5.888;2022-08-19T13:42:50;27.20;91.70
37642;DHT22;23486;51.956;5.888;2022-08-19T13:45:22;27.30;91.70
37642;DHT22;23486;51.956;5.888;2022-08-19T13:47:52;27.40;91.70
37642;DHT22;23486;51.956;5.888;2022-08-19T13:50:22;27.50;91.50
37642;DHT22;23486;51.956;5.888;2022-08-19T13:52:50;27.60;91.20
37642;DHT22;23486;51.956;5.888;2022-08-19T13:55:15;27.60;91.20
37642;DHT22;23486;51.956;5.888;2022-08-19T13:57:42;27.60;90.80
37642;DHT22;23486;51.956;5.888;2022-08-19T14:00:14;27.50;91.00
37642;DHT22;23486;51.956;5.888;2022-08-19T14:02:40;27.70;91.20
37642;DHT22;23486;51.956;5.888;2022-08-19T14:05:09;27.80;91.30
37642;DHT22;23486;51.956;5.888;2022-08-19T14:07:36;27.80;91.00
37642;DHT22;23486;51.956;5.888;2022-08-19T14:10:03;27.70;91.20
37642;DHT22;23486;51.956;5.888;2022-08-19T14:12:29;27.80;91.30
37642;DHT22;23486;51.956;5.888;2022-08-19T14:14:57;27.70;91.30
37642;DHT22;23486;51.956;5.888;2022-08-19T14:17:22;27.60;91.30
37642;DHT22;23486;51.956;5.888;2022-08-19T14:19:48;27.40;91.00
37642;DHT22;23486;51.956;5.888;2022-08-19T14:22:14;27.40;91.20
37642;DHT22;23486;51.956;5.888;2022-08-19T14:24:39;27.30;91.20
37642;DHT22;23486;51.956;5.888;2022-08-19T14:27:06;27.10;91.30
37642;DHT22;23486;51.956;5.888;2022-08-19T14:29:32;27.10;91.40
37642;DHT22;23486;51.956;5.888;2022-08-19T14:31:58;27.20;91.50
37642;DHT22;23486;51.956;5.888;2022-08-19T14:34:25;27.00;91.40
37642;DHT22;23486;51.956;5.888;2022-08-19T14:36:51;27.00;91.50
37642;DHT22;23486;51.956;5.888;2022-08-19T14:39:17;26.90;91.50
37642;DHT22;23486;51.956;5.888;2022-08-19T14:41:43;26.70;91.40
37642;DHT22;23486;51.956;5.888;2022-08-19T14:44:08;26.70;91.70
37642;DHT22;23486;51.956;5.888;2022-08-19T14:46:38;26.50;91.90
37642;DHT22;23486;51.956;5.888;2022-08-19T14:49:04;26.40;92.00
37642;DHT22;23486;51.956;5.888;2022-08-19T14:51:30;26.30;92.10
37642;DHT22;23486;51.956;5.888;2022-08-19T14:53:55;26.20;92.30
37642;DHT22;23486;51.956;5.888;2022-08-19T14:56:24;26.20;92.50
37642;DHT22;23486;51.956;5.888;2022-08-19T14:58:50;26.20;92.60
37642;DHT22;23486;51.956;5.888;2022-08-19T15:01:20;26.20;92.50
37642;DHT22;23486;51.956;5.888;2022-08-19T15:03:50;26.10;92.60
37642;DHT22;23486;51.956;5.888;2022-08-19T15:06:18;26.10;92.70
37642;DHT22;23486;51.956;5.888;2022-08-19T15:08:44;26.10;92.70
37642;DHT22;23486;51.956;5.888;2022-08-19T15:11:12;26.00;92.80
37642;DHT22;23486;51.956;5.888;2022-08-19T15:13:40;26.00;92.90
37642;DHT22;23486;51.956;5.888;2022-08-19T15:16:09;26.00;93.00
37642;DHT22;23486;51.956;5.888;2022-08-19T15:18:40;25.80;92.90
37642;DHT22;23486;51.956;5.888;2022-08-19T15:21:10;25.70;92.90
37642;DHT22;23486;51.956;5.888;2022-08-19T15:23:38;25.50;93.10
37642;DHT22;23486;51.956;5.888;2022-08-19T15:26:03;25.40;93.30
37642;DHT22;23486;51.956;5.888;2022-08-19T15:28:31;25.40;93.50
37642;DHT22;23486;51.956;5.888;2022-08-19T15:30:58;25.30;93.90
37642;DHT22;23486;51.956;5.888;2022-08-19T15:33:24;25.10;94.30
37642;DHT22;23486;51.956;5.888;2022-08-19T15:35:50;25.00;94.50
37642;DHT22;23486;51.956;5.888;2022-08-19T15:38:17;24.80;94.90
37642;DHT22;23486;51.956;5.888;2022-08-19T15:40:46;24.60;95.80
37642;DHT22;23486;51.956;5.888;2022-08-19T15:43:14;24.50;96.20
37642;DHT22;23486;51.956;5.888;2022-08-19T15:45:40;24.40;96.60